ePrivacy and GPDR Cookie Consent by Cookie Consent
EmailTwitter


Observations de surface / États-Unis / KJFK (74486)

Régions: Québec | Canada | États-Unis | Europe | France | UK | Ailleurs
Station
Affichage
Infos & localisation pour KJFK (74486) | Aide pour décoder les METARs

Observations prises le 2022-08-14 à 10H51 UTC à NEW YORK/JF KENN, NY (KJFK)

Etat du ciel: partiellement nuageux.

Température: 20.0 Celsius

Point de rosée: 12.0 Celsius

Humidité relative: 60%

Vents: Calme à 0 km/h ou 0 noeuds.

Pression au niveau moyen de la mer: 101.87 kilopascals.

Calage altimétrique: 101.86 kilopascals ou 30.08 pouces de mercure.

Visibilité horizontale: 10.00 milles terrestres ou 16.00 kilomètres.

Hauteur du plafond: 7315 mètres ( 24000 pieds ).

Observation METAR:

KJFK 141051Z 00000KT 10SM FEW090 BKN240 20/12 A3008 RMK AO2 SLP187 T02000122=